sensor_id;sensor_type;location;lat;lon;timestamp;P1;durP1;ratioP1;P2;durP2;ratioP2
16727;SDS011;8482;54.396;18.590;2023-04-16T05:24:51;9.02;;;5.50;;
16727;SDS011;8482;54.396;18.590;2023-04-16T05:27:17;10.90;;;6.47;;
16727;SDS011;8482;54.396;18.590;2023-04-16T05:29:43;11.57;;;6.65;;
16727;SDS011;8482;54.396;18.590;2023-04-16T05:32:08;11.23;;;7.38;;
16727;SDS011;8482;54.396;18.590;2023-04-16T05:34:35;10.40;;;6.95;;
16727;SDS011;8482;54.396;18.590;2023-04-16T05:37:01;11.45;;;6.68;;
16727;SDS011;8482;54.396;18.590;2023-04-16T05:39:27;11.65;;;6.47;;
16727;SDS011;8482;54.396;18.590;2023-04-16T05:41:53;10.23;;;6.88;;
16727;SDS011;8482;54.396;18.590;2023-04-16T05:44:19;11.00;;;6.80;;
16727;SDS011;8482;54.396;18.590;2023-04-16T05:46:44;10.52;;;6.20;;
16727;SDS011;8482;54.396;18.590;2023-04-16T05:49:10;10.38;;;6.32;;
16727;SDS011;8482;54.396;18.590;2023-04-16T05:51:36;9.27;;;5.82;;
16727;SDS011;8482;54.396;18.590;2023-04-16T05:54:02;10.07;;;6.15;;
16727;SDS011;8482;54.396;18.590;2023-04-16T05:56:28;9.85;;;6.05;;
16727;SDS011;8482;54.396;18.590;2023-04-16T05:58:54;9.80;;;6.13;;
16727;SDS011;8482;54.396;18.590;2023-04-16T06:01:20;8.68;;;6.05;;
16727;SDS011;8482;54.396;18.590;2023-04-16T06:03:49;10.18;;;6.43;;
16727;SDS011;8482;54.396;18.590;2023-04-16T06:06:15;8.95;;;6.30;;
16727;SDS011;8482;54.396;18.590;2023-04-16T06:08:41;11.20;;;6.40;;
16727;SDS011;8482;54.396;18.590;2023-04-16T06:11:06;8.35;;;5.75;;
16727;SDS011;8482;54.396;18.590;2023-04-16T06:13:32;10.10;;;6.45;;
16727;SDS011;8482;54.396;18.590;2023-04-16T06:15:58;11.65;;;6.30;;
16727;SDS011;8482;54.396;18.590;2023-04-16T06:18:24;11.48;;;6.32;;
16727;SDS011;8482;54.396;18.590;2023-04-16T06:20:50;12.38;;;6.45;;
16727;SDS011;8482;54.396;18.590;2023-04-16T06:23:16;8.77;;;6.03;;
16727;SDS011;8482;54.396;18.590;2023-04-16T06:25:42;8.82;;;5.85;;
16727;SDS011;8482;54.396;18.590;2023-04-16T06:28:08;11.18;;;6.43;;
16727;SDS011;8482;54.396;18.590;2023-04-16T06:30:33;11.70;;;6.63;;
16727;SDS011;8482;54.396;18.590;2023-04-16T06:32:59;12.48;;;7.22;;
16727;SDS011;8482;54.396;18.590;2023-04-16T06:35:25;9.43;;;6.35;;
16727;SDS011;8482;54.396;18.590;2023-04-16T06:37:51;9.77;;;6.57;;
16727;SDS011;8482;54.396;18.590;2023-04-16T06:40:17;7.38;;;5.20;;
16727;SDS011;8482;54.396;18.590;2023-04-16T06:42:42;8.32;;;5.22;;
16727;SDS011;8482;54.396;18.590;2023-04-16T06:45:10;8.70;;;5.82;;
16727;SDS011;8482;54.396;18.590;2023-04-16T06:47:36;9.25;;;5.55;;
16727;SDS011;8482;54.396;18.590;2023-04-16T06:50:02;8.23;;;5.13;;
16727;SDS011;8482;54.396;18.590;2023-04-16T06:52:28;8.68;;;5.05;;
16727;SDS011;8482;54.396;18.590;2023-04-16T06:54:54;10.00;;;5.45;;
16727;SDS011;8482;54.396;18.590;2023-04-16T06:57:20;8.43;;;5.40;;
16727;SDS011;8482;54.396;18.590;2023-04-16T06:59:46;8.07;;;5.10;;
16727;SDS011;8482;54.396;18.590;2023-04-16T07:02:12;8.63;;;5.07;;
16727;SDS011;8482;54.396;18.590;2023-04-16T07:04:38;9.70;;;5.25;;
16727;SDS011;8482;54.396;18.590;2023-04-16T07:07:04;8.20;;;5.05;;
16727;SDS011;8482;54.396;18.590;2023-04-16T07:09:30;8.70;;;5.10;;
16727;SDS011;8482;54.396;18.590;2023-04-16T07:11:55;7.88;;;5.28;;
16727;SDS011;8482;54.396;18.590;2023-04-16T07:14:21;7.68;;;4.55;;
16727;SDS011;8482;54.396;18.590;2023-04-16T07:16:47;8.18;;;4.75;;
16727;SDS011;8482;54.396;18.590;2023-04-16T07:19:13;7.38;;;4.78;;
16727;SDS011;8482;54.396;18.590;2023-04-16T07:21:39;7.88;;;4.82;;
16727;SDS011;8482;54.396;18.590;2023-04-16T07:24:07;8.25;;;4.75;;
16727;SDS011;8482;54.396;18.590;2023-04-16T07:26:35;6.72;;;4.07;;
16727;SDS011;8482;54.396;18.590;2023-04-16T07:29:01;7.90;;;4.70;;
16727;SDS011;8482;54.396;18.590;2023-04-16T07:31:27;8.07;;;5.13;;
16727;SDS011;8482;54.396;18.590;2023-04-16T07:33:53;7.38;;;4.93;;
16727;SDS011;8482;54.396;18.590;2023-04-16T07:36:19;8.85;;;4.78;;
16727;SDS011;8482;54.396;18.590;2023-04-16T07:38:45;6.47;;;4.28;;
16727;SDS011;8482;54.396;18.590;2023-04-16T07:41:11;9.63;;;5.68;;
16727;SDS011;8482;54.396;18.590;2023-04-16T07:43:37;7.20;;;4.60;;
16727;SDS011;8482;54.396;18.590;2023-04-16T07:46:03;7.05;;;4.63;;
16727;SDS011;8482;54.396;18.590;2023-04-16T07:48:29;8.45;;;4.60;;
16727;SDS011;8482;54.396;18.590;2023-04-16T07:50:55;7.93;;;4.95;;
16727;SDS011;8482;54.396;18.590;2023-04-16T07:53:21;7.07;;;4.47;;
16727;SDS011;8482;54.396;18.590;2023-04-16T07:55:47;7.03;;;4.60;;
16727;SDS011;8482;54.396;18.590;2023-04-16T07:58:13;8.35;;;4.82;;
16727;SDS011;8482;54.396;18.590;2023-04-16T08:00:39;8.82;;;5.25;;
16727;SDS011;8482;54.396;18.590;2023-04-16T08:03:05;8.55;;;5.13;;
16727;SDS011;8482;54.396;18.590;2023-04-16T08:05:30;8.68;;;5.03;;
16727;SDS011;8482;54.396;18.590;2023-04-16T08:07:56;8.15;;;4.53;;
16727;SDS011;8482;54.396;18.590;2023-04-16T08:10:22;7.75;;;5.07;;
16727;SDS011;8482;54.396;18.590;2023-04-16T08:12:48;8.38;;;4.85;;
16727;SDS011;8482;54.396;18.590;2023-04-16T08:15:14;8.20;;;4.82;;
16727;SDS011;8482;54.396;18.590;2023-04-16T08:17:39;7.97;;;5.28;;
16727;SDS011;8482;54.396;18.590;2023-04-16T08:20:06;7.55;;;4.65;;
16727;SDS011;8482;54.396;18.590;2023-04-16T08:22:32;8.85;;;4.55;;
16727;SDS011;8482;54.396;18.590;2023-04-16T08:24:58;8.23;;;4.50;;
16727;SDS011;8482;54.396;18.590;2023-04-16T08:27:24;11.23;;;4.95;;
16727;SDS011;8482;54.396;18.590;2023-04-16T08:29:50;7.22;;;4.40;;
16727;SDS011;8482;54.396;18.590;2023-04-16T08:32:16;7.15;;;3.78;;
16727;SDS011;8482;54.396;18.590;2023-04-16T08:34:42;5.90;;;3.53;;
16727;SDS011;8482;54.396;18.590;2023-04-16T08:37:08;6.30;;;3.75;;
16727;SDS011;8482;54.396;18.590;2023-04-16T08:39:34;5.93;;;3.80;;
16727;SDS011;8482;54.396;18.590;2023-04-16T08:42:01;6.97;;;3.60;;
16727;SDS011;8482;54.396;18.590;2023-04-16T08:44:33;5.80;;;3.70;;
16727;SDS011;8482;54.396;18.590;2023-04-16T08:47:07;6.22;;;3.60;;
16727;SDS011;8482;54.396;18.590;2023-04-16T08:49:36;5.53;;;3.33;;
16727;SDS011;8482;54.396;18.590;2023-04-16T08:52:09;5.18;;;3.47;;
16727;SDS011;8482;54.396;18.590;2023-04-16T08:54:51;4.95;;;3.20;;
16727;SDS011;8482;54.396;18.590;2023-04-16T08:57:38;5.07;;;3.10;;
16727;SDS011;8482;54.396;18.590;2023-04-16T09:00:15;6.10;;;3.47;;
16727;SDS011;8482;54.396;18.590;2023-04-16T09:02:42;5.43;;;3.05;;
16727;SDS011;8482;54.396;18.590;2023-04-16T09:05:09;4.53;;;2.78;;
16727;SDS011;8482;54.396;18.590;2023-04-16T09:07:44;5.22;;;2.83;;
16727;SDS011;8482;54.396;18.590;2023-04-16T09:10:11;4.63;;;2.63;;
16727;SDS011;8482;54.396;18.590;2023-04-16T09:12:40;4.85;;;3.03;;
16727;SDS011;8482;54.396;18.590;2023-04-16T09:15:08;4.55;;;2.63;;
16727;SDS011;8482;54.396;18.590;2023-04-16T09:17:35;4.90;;;2.97;;
16727;SDS011;8482;54.396;18.590;2023-04-16T09:20:02;3.80;;;2.53;;
16727;SDS011;8482;54.396;18.590;2023-04-16T09:22:36;3.38;;;2.15;;
16727;SDS011;8482;54.396;18.590;2023-04-16T09:25:06;3.00;;;1.88;;
16727;SDS011;8482;54.396;18.590;2023-04-16T09:27:33;2.97;;;1.80;;
16727;SDS011;8482;54.396;18.590;2023-04-16T09:30:00;3.08;;;2.00;;
16727;SDS011;8482;54.396;18.590;2023-04-16T09:32:48;4.00;;;2.00;;
16727;SDS011;8482;54.396;18.590;2023-04-16T09:35:52;3.08;;;1.88;;
16727;SDS011;8482;54.396;18.590;2023-04-16T09:38:18;2.60;;;1.80;;
16727;SDS011;8482;54.396;18.590;2023-04-16T09:40:45;4.68;;;2.30;;
16727;SDS011;8482;54.396;18.590;2023-04-16T09:43:15;3.72;;;2.50;;
16727;SDS011;8482;54.396;18.590;2023-04-16T09:45:52;3.85;;;2.45;;
16727;SDS011;8482;54.396;18.590;2023-04-16T09:48:28;4.15;;;2.63;;
16727;SDS011;8482;54.396;18.590;2023-04-16T09:50:56;4.30;;;2.42;;
16727;SDS011;8482;54.396;18.590;2023-04-16T09:53:24;3.72;;;2.17;;
16727;SDS011;8482;54.396;18.590;2023-04-16T09:55:56;4.15;;;2.53;;
16727;SDS011;8482;54.396;18.590;2023-04-16T09:58:30;3.63;;;2.10;;
16727;SDS011;8482;54.396;18.590;2023-04-16T10:01:00;2.85;;;2.03;;
16727;SDS011;8482;54.396;18.590;2023-04-16T10:03:34;3.92;;;2.30;;
16727;SDS011;8482;54.396;18.590;2023-04-16T10:08:48;4.88;;;2.63;;
16727;SDS011;8482;54.396;18.590;2023-04-16T10:11:17;5.90;;;2.67;;
16727;SDS011;8482;54.396;18.590;2023-04-16T10:13:44;3.58;;;2.50;;
16727;SDS011;8482;54.396;18.590;2023-04-16T10:16:11;3.80;;;2.40;;
16727;SDS011;8482;54.396;18.590;2023-04-16T10:18:38;3.88;;;2.50;;
16727;SDS011;8482;54.396;18.590;2023-04-16T10:21:06;3.72;;;2.50;;
16727;SDS011;8482;54.396;18.590;2023-04-16T10:23:35;3.60;;;2.40;;
16727;SDS011;8482;54.396;18.590;2023-04-16T10:26:04;3.25;;;2.15;;
16727;SDS011;8482;54.396;18.590;2023-04-16T10:28:30;3.75;;;2.08;;
16727;SDS011;8482;54.396;18.590;2023-04-16T10:30:59;3.35;;;2.08;;
16727;SDS011;8482;54.396;18.590;2023-04-16T10:33:36;3.60;;;2.35;;
16727;SDS011;8482;54.396;18.590;2023-04-16T10:36:09;5.53;;;2.70;;
16727;SDS011;8482;54.396;18.590;2023-04-16T10:38:51;3.97;;;2.30;;
16727;SDS011;8482;54.396;18.590;2023-04-16T10:41:22;4.38;;;2.20;;
16727;SDS011;8482;54.396;18.590;2023-04-16T10:43:51;3.45;;;2.15;;
16727;SDS011;8482;54.396;18.590;2023-04-16T10:48:59;2.63;;;1.88;;
16727;SDS011;8482;54.396;18.590;2023-04-16T10:54:18;3.88;;;2.30;;
16727;SDS011;8482;54.396;18.590;2023-04-16T10:56:45;3.15;;;2.10;;
16727;SDS011;8482;54.396;18.590;2023-04-16T10:59:12;4.40;;;2.50;;
16727;SDS011;8482;54.396;18.590;2023-04-16T11:01:43;3.25;;;2.47;;
16727;SDS011;8482;54.396;18.590;2023-04-16T11:12:41;3.60;;;2.20;;
16727;SDS011;8482;54.396;18.590;2023-04-16T11:15:11;3.15;;;2.08;;
16727;SDS011;8482;54.396;18.590;2023-04-16T11:17:47;2.97;;;2.17;;
16727;SDS011;8482;54.396;18.590;2023-04-16T11:20:16;3.45;;;2.10;;
16727;SDS011;8482;54.396;18.590;2023-04-16T11:22:44;3.90;;;2.55;;
16727;SDS011;8482;54.396;18.590;2023-04-16T11:25:10;5.10;;;2.83;;
16727;SDS011;8482;54.396;18.590;2023-04-16T11:27:36;4.53;;;3.05;;
16727;SDS011;8482;54.396;18.590;2023-04-16T11:30:03;4.57;;;2.40;;
16727;SDS011;8482;54.396;18.590;2023-04-16T11:32:35;4.55;;;2.50;;
16727;SDS011;8482;54.396;18.590;2023-04-16T11:35:03;3.83;;;2.30;;
16727;SDS011;8482;54.396;18.590;2023-04-16T11:37:41;4.13;;;2.60;;
16727;SDS011;8482;54.396;18.590;2023-04-16T11:40:08;4.18;;;2.50;;
16727;SDS011;8482;54.396;18.590;2023-04-16T11:42:35;3.90;;;2.60;;
16727;SDS011;8482;54.396;18.590;2023-04-16T11:45:07;4.45;;;2.70;;
16727;SDS011;8482;54.396;18.590;2023-04-16T11:47:45;4.03;;;2.58;;
16727;SDS011;8482;54.396;18.590;2023-04-16T11:50:20;3.67;;;2.47;;
16727;SDS011;8482;54.396;18.590;2023-04-16T11:52:52;4.47;;;2.80;;
16727;SDS011;8482;54.396;18.590;2023-04-16T11:55:21;4.00;;;2.60;;
16727;SDS011;8482;54.396;18.590;2023-04-16T11:57:48;4.63;;;2.70;;
16727;SDS011;8482;54.396;18.590;2023-04-16T12:00:15;4.03;;;2.60;;
16727;SDS011;8482;54.396;18.590;2023-04-16T12:02:41;4.32;;;2.78;;
16727;SDS011;8482;54.396;18.590;2023-04-16T12:08:03;5.22;;;3.35;;
16727;SDS011;8482;54.396;18.590;2023-04-16T12:10:33;6.80;;;3.58;;
16727;SDS011;8482;54.396;18.590;2023-04-16T12:13:14;5.18;;;3.10;;
16727;SDS011;8482;54.396;18.590;2023-04-16T12:15:45;4.35;;;2.92;;
16727;SDS011;8482;54.396;18.590;2023-04-16T12:18:18;4.63;;;3.45;;
16727;SDS011;8482;54.396;18.590;2023-04-16T12:20:47;4.72;;;3.38;;
16727;SDS011;8482;54.396;18.590;2023-04-16T12:23:29;5.78;;;3.60;;
16727;SDS011;8482;54.396;18.590;2023-04-16T12:25:57;5.93;;;4.00;;
16727;SDS011;8482;54.396;18.590;2023-04-16T12:28:34;5.45;;;3.42;;
16727;SDS011;8482;54.396;18.590;2023-04-16T12:31:02;5.60;;;3.60;;
16727;SDS011;8482;54.396;18.590;2023-04-16T12:33:29;5.70;;;4.00;;
16727;SDS011;8482;54.396;18.590;2023-04-16T12:35:56;7.63;;;4.80;;
16727;SDS011;8482;54.396;18.590;2023-04-16T12:38:22;8.35;;;5.00;;
16727;SDS011;8482;54.396;18.590;2023-04-16T12:40:49;7.10;;;4.88;;
16727;SDS011;8482;54.396;18.590;2023-04-16T12:43:15;6.85;;;4.55;;
16727;SDS011;8482;54.396;18.590;2023-04-16T12:45:41;7.45;;;4.90;;
16727;SDS011;8482;54.396;18.590;2023-04-16T12:48:07;8.10;;;5.03;;
16727;SDS011;8482;54.396;18.590;2023-04-16T12:50:33;6.93;;;4.65;;
16727;SDS011;8482;54.396;18.590;2023-04-16T12:52:59;7.55;;;4.63;;
16727;SDS011;8482;54.396;18.590;2023-04-16T12:55:25;7.35;;;4.40;;
16727;SDS011;8482;54.396;18.590;2023-04-16T12:57:51;5.28;;;3.63;;
16727;SDS011;8482;54.396;18.590;2023-04-16T13:00:17;5.85;;;3.60;;
16727;SDS011;8482;54.396;18.590;2023-04-16T13:02:44;5.72;;;4.05;;
16727;SDS011;8482;54.396;18.590;2023-04-16T13:05:10;5.28;;;3.40;;
16727;SDS011;8482;54.396;18.590;2023-04-16T13:07:38;7.38;;;3.85;;
16727;SDS011;8482;54.396;18.590;2023-04-16T13:10:05;6.18;;;3.75;;
16727;SDS011;8482;54.396;18.590;2023-04-16T13:12:32;5.70;;;3.65;;
16727;SDS011;8482;54.396;18.590;2023-04-16T13:14:58;6.00;;;3.58;;
16727;SDS011;8482;54.396;18.590;2023-04-16T13:17:23;5.43;;;3.40;;
16727;SDS011;8482;54.396;18.590;2023-04-16T13:19:49;5.68;;;3.30;;
16727;SDS011;8482;54.396;18.590;2023-04-16T13:22:15;4.95;;;3.10;;
16727;SDS011;8482;54.396;18.590;2023-04-16T13:24:43;5.55;;;3.20;;
16727;SDS011;8482;54.396;18.590;2023-04-16T13:27:10;6.50;;;3.95;;
16727;SDS011;8482;54.396;18.590;2023-04-16T13:29:36;5.38;;;3.33;;
16727;SDS011;8482;54.396;18.590;2023-04-16T13:32:02;6.40;;;3.92;;
16727;SDS011;8482;54.396;18.590;2023-04-16T13:34:29;5.07;;;3.28;;
16727;SDS011;8482;54.396;18.590;2023-04-16T13:36:55;6.80;;;3.65;;
16727;SDS011;8482;54.396;18.590;2023-04-16T13:39:21;5.90;;;3.72;;
16727;SDS011;8482;54.396;18.590;2023-04-16T13:41:47;6.85;;;4.15;;
16727;SDS011;8482;54.396;18.590;2023-04-16T13:44:13;4.82;;;3.35;;
16727;SDS011;8482;54.396;18.590;2023-04-16T13:46:39;5.28;;;3.50;;
16727;SDS011;8482;54.396;18.590;2023-04-16T13:49:07;6.07;;;3.85;;
16727;SDS011;8482;54.396;18.590;2023-04-16T13:51:33;5.30;;;3.60;;
16727;SDS011;8482;54.396;18.590;2023-04-16T13:53:59;4.45;;;3.00;;
16727;SDS011;8482;54.396;18.590;2023-04-16T13:56:25;6.15;;;3.90;;
16727;SDS011;8482;54.396;18.590;2023-04-16T13:58:51;6.55;;;4.03;;
16727;SDS011;8482;54.396;18.590;2023-04-16T14:01:16;6.95;;;4.25;;
16727;SDS011;8482;54.396;18.590;2023-04-16T14:03:42;6.22;;;4.22;;
16727;SDS011;8482;54.396;18.590;2023-04-16T14:06:08;6.97;;;4.57;;
16727;SDS011;8482;54.396;18.590;2023-04-16T14:08:34;6.82;;;4.50;;
16727;SDS011;8482;54.396;18.590;2023-04-16T14:11:00;6.53;;;4.40;;
16727;SDS011;8482;54.396;18.590;2023-04-16T14:13:26;6.50;;;4.30;;
16727;SDS011;8482;54.396;18.590;2023-04-16T14:15:52;7.38;;;4.60;;
16727;SDS011;8482;54.396;18.590;2023-04-16T14:18:18;6.43;;;4.43;;
16727;SDS011;8482;54.396;18.590;2023-04-16T14:20:44;7.82;;;5.00;;
16727;SDS011;8482;54.396;18.590;2023-04-16T14:23:11;7.63;;;4.20;;
16727;SDS011;8482;54.396;18.590;2023-04-16T14:25:37;6.40;;;4.18;;
16727;SDS011;8482;54.396;18.590;2023-04-16T14:28:03;6.32;;;4.38;;
16727;SDS011;8482;54.396;18.590;2023-04-16T14:30:29;6.05;;;4.30;;
16727;SDS011;8482;54.396;18.590;2023-04-16T14:32:54;6.38;;;3.92;;
16727;SDS011;8482;54.396;18.590;2023-04-16T14:35:21;7.63;;;4.35;;
16727;SDS011;8482;54.396;18.590;2023-04-16T14:37:48;5.75;;;3.58;;
16727;SDS011;8482;54.396;18.590;2023-04-16T14:40:14;7.28;;;3.67;;
16727;SDS011;8482;54.396;18.590;2023-04-16T14:42:40;5.88;;;3.78;;
16727;SDS011;8482;54.396;18.590;2023-04-16T14:45:07;6.10;;;3.78;;
16727;SDS011;8482;54.396;18.590;2023-04-16T14:47:33;5.50;;;3.55;;
16727;SDS011;8482;54.396;18.590;2023-04-16T14:50:00;6.45;;;3.90;;
16727;SDS011;8482;54.396;18.590;2023-04-16T14:52:27;5.88;;;3.70;;
16727;SDS011;8482;54.396;18.590;2023-04-16T14:54:55;5.60;;;3.28;;
16727;SDS011;8482;54.396;18.590;2023-04-16T14:57:21;5.53;;;3.50;;
16727;SDS011;8482;54.396;18.590;2023-04-16T14:59:47;5.68;;;3.20;;
16727;SDS011;8482;54.396;18.590;2023-04-16T15:02:14;6.65;;;3.63;;
16727;SDS011;8482;54.396;18.590;2023-04-16T15:04:40;5.97;;;3.58;;
16727;SDS011;8482;54.396;18.590;2023-04-16T15:07:06;5.40;;;3.22;;
16727;SDS011;8482;54.396;18.590;2023-04-16T15:09:32;6.13;;;4.10;;
16727;SDS011;8482;54.396;18.590;2023-04-16T15:11:59;5.57;;;3.40;;
16727;SDS011;8482;54.396;18.590;2023-04-16T15:14:24;6.38;;;3.63;;
16727;SDS011;8482;54.396;18.590;2023-04-16T15:16:51;5.18;;;3.33;;
16727;SDS011;8482;54.396;18.590;2023-04-16T15:19:17;5.72;;;3.08;;
16727;SDS011;8482;54.396;18.590;2023-04-16T15:21:43;5.80;;;3.53;;
16727;SDS011;8482;54.396;18.590;2023-04-16T15:24:09;5.30;;;3.50;;
16727;SDS011;8482;54.396;18.590;2023-04-16T15:26:36;6.55;;;3.78;;
16727;SDS011;8482;54.396;18.590;2023-04-16T15:29:02;8.20;;;4.00;;
16727;SDS011;8482;54.396;18.590;2023-04-16T15:31:28;7.47;;;3.80;;
16727;SDS011;8482;54.396;18.590;2023-04-16T15:33:54;5.15;;;3.58;;
16727;SDS011;8482;54.396;18.590;2023-04-16T15:36:20;5.97;;;3.67;;
16727;SDS011;8482;54.396;18.590;2023-04-16T15:38:46;5.70;;;3.45;;
16727;SDS011;8482;54.396;18.590;2023-04-16T15:41:12;5.80;;;3.50;;
16727;SDS011;8482;54.396;18.590;2023-04-16T15:43:38;5.53;;;3.47;;
16727;SDS011;8482;54.396;18.590;2023-04-16T15:46:04;6.25;;;3.45;;
16727;SDS011;8482;54.396;18.590;2023-04-16T15:48:30;5.72;;;3.20;;
16727;SDS011;8482;54.396;18.590;2023-04-16T15:50:56;6.05;;;3.03;;
16727;SDS011;8482;54.396;18.590;2023-04-16T15:53:22;5.50;;;3.30;;
16727;SDS011;8482;54.396;18.590;2023-04-16T15:55:48;5.20;;;3.55;;
16727;SDS011;8482;54.396;18.590;2023-04-16T15:58:16;5.60;;;3.40;;
16727;SDS011;8482;54.396;18.590;2023-04-16T16:00:43;5.40;;;3.47;;
16727;SDS011;8482;54.396;18.590;2023-04-16T16:03:13;5.70;;;3.63;;
16727;SDS011;8482;54.396;18.590;2023-04-16T16:05:41;6.20;;;3.60;;
16727;SDS011;8482;54.396;18.590;2023-04-16T16:08:07;5.32;;;3.30;;
16727;SDS011;8482;54.396;18.590;2023-04-16T16:10:35;5.70;;;3.53;;
16727;SDS011;8482;54.396;18.590;2023-04-16T16:13:01;5.97;;;3.17;;
16727;SDS011;8482;54.396;18.590;2023-04-16T16:15:32;5.95;;;3.33;;
16727;SDS011;8482;54.396;18.590;2023-04-16T16:17:59;5.65;;;3.10;;
16727;SDS011;8482;54.396;18.590;2023-04-16T16:20:25;5.60;;;3.08;;
16727;SDS011;8482;54.396;18.590;2023-04-16T16:22:51;5.22;;;3.05;;
16727;SDS011;8482;54.396;18.590;2023-04-16T16:25:17;4.35;;;2.70;;
16727;SDS011;8482;54.396;18.590;2023-04-16T16:27:44;4.78;;;3.03;;
16727;SDS011;8482;54.396;18.590;2023-04-16T16:30:10;4.53;;;2.83;;
16727;SDS011;8482;54.396;18.590;2023-04-16T16:32:36;5.40;;;3.30;;
16727;SDS011;8482;54.396;18.590;2023-04-16T16:35:06;5.40;;;3.30;;
16727;SDS011;8482;54.396;18.590;2023-04-16T16:37:33;5.75;;;3.05;;
16727;SDS011;8482;54.396;18.590;2023-04-16T16:39:59;5.07;;;3.15;;
16727;SDS011;8482;54.396;18.590;2023-04-16T16:42:25;5.68;;;2.90;;
16727;SDS011;8482;54.396;18.590;2023-04-16T16:44:51;6.40;;;3.30;;
16727;SDS011;8482;54.396;18.590;2023-04-16T16:47:17;5.82;;;3.40;;
16727;SDS011;8482;54.396;18.590;2023-04-16T16:49:43;4.53;;;2.92;;
16727;SDS011;8482;54.396;18.590;2023-04-16T16:52:10;5.20;;;3.08;;
16727;SDS011;8482;54.396;18.590;2023-04-16T16:54:36;4.38;;;2.85;;
16727;SDS011;8482;54.396;18.590;2023-04-16T16:57:02;5.57;;;3.20;;
16727;SDS011;8482;54.396;18.590;2023-04-16T16:59:28;4.47;;;2.83;;
16727;SDS011;8482;54.396;18.590;2023-04-16T17:01:54;3.97;;;2.65;;
16727;SDS011;8482;54.396;18.590;2023-04-16T17:04:20;5.70;;;3.17;;
16727;SDS011;8482;54.396;18.590;2023-04-16T17:06:46;6.22;;;3.17;;
16727;SDS011;8482;54.396;18.590;2023-04-16T17:09:11;5.63;;;2.97;;
16727;SDS011;8482;54.396;18.590;2023-04-16T17:11:37;5.07;;;2.83;;
16727;SDS011;8482;54.396;18.590;2023-04-16T17:14:03;4.75;;;2.80;;
16727;SDS011;8482;54.396;18.590;2023-04-16T17:16:29;4.88;;;2.80;;
16727;SDS011;8482;54.396;18.590;2023-04-16T17:18:55;5.47;;;3.10;;
16727;SDS011;8482;54.396;18.590;2023-04-16T17:21:23;5.68;;;2.97;;
16727;SDS011;8482;54.396;18.590;2023-04-16T17:23:49;6.38;;;3.45;;
16727;SDS011;8482;54.396;18.590;2023-04-16T17:26:15;6.05;;;3.97;;
16727;SDS011;8482;54.396;18.590;2023-04-16T17:28:40;6.60;;;3.75;;
16727;SDS011;8482;54.396;18.590;2023-04-16T17:31:06;5.97;;;3.92;;
16727;SDS011;8482;54.396;18.590;2023-04-16T17:33:32;8.35;;;4.15;;
16727;SDS011;8482;54.396;18.590;2023-04-16T17:35:58;7.57;;;4.00;;
16727;SDS011;8482;54.396;18.590;2023-04-16T17:38:24;7.60;;;4.68;;
16727;SDS011;8482;54.396;18.590;2023-04-16T17:40:50;6.22;;;4.30;;
16727;SDS011;8482;54.396;18.590;2023-04-16T17:43:16;6.75;;;3.55;;
16727;SDS011;8482;54.396;18.590;2023-04-16T17:45:42;5.85;;;3.30;;
16727;SDS011;8482;54.396;18.590;2023-04-16T17:48:07;6.55;;;3.70;;
16727;SDS011;8482;54.396;18.590;2023-04-16T17:50:36;5.78;;;3.47;;
16727;SDS011;8482;54.396;18.590;2023-04-16T17:53:02;5.68;;;3.20;;
16727;SDS011;8482;54.396;18.590;2023-04-16T17:55:29;6.40;;;3.83;;
16727;SDS011;8482;54.396;18.590;2023-04-16T17:57:55;5.63;;;3.20;;
16727;SDS011;8482;54.396;18.590;2023-04-16T18:00:21;5.60;;;3.22;;
16727;SDS011;8482;54.396;18.590;2023-04-16T18:02:46;5.70;;;3.40;;
16727;SDS011;8482;54.396;18.590;2023-04-16T18:05:12;6.32;;;3.55;;
16727;SDS011;8482;54.396;18.590;2023-04-16T18:07:38;5.22;;;3.40;;
16727;SDS011;8482;54.396;18.590;2023-04-16T18:10:04;5.95;;;3.70;;
16727;SDS011;8482;54.396;18.590;2023-04-16T18:12:31;5.15;;;2.80;;
16727;SDS011;8482;54.396;18.590;2023-04-16T18:14:57;5.03;;;3.17;;
16727;SDS011;8482;54.396;18.590;2023-04-16T18:17:23;4.95;;;3.00;;
16727;SDS011;8482;54.396;18.590;2023-04-16T18:19:49;4.20;;;2.80;;
16727;SDS011;8482;54.396;18.590;2023-04-16T18:22:14;5.72;;;3.28;;
16727;SDS011;8482;54.396;18.590;2023-04-16T18:24:40;4.85;;;3.15;;
16727;SDS011;8482;54.396;18.590;2023-04-16T18:27:06;6.22;;;3.60;;
16727;SDS011;8482;54.396;18.590;2023-04-16T18:29:32;5.38;;;3.17;;
16727;SDS011;8482;54.396;18.590;2023-04-16T18:31:57;4.55;;;3.03;;
16727;SDS011;8482;54.396;18.590;2023-04-16T18:34:23;4.55;;;2.88;;
16727;SDS011;8482;54.396;18.590;2023-04-16T18:36:50;4.70;;;2.70;;
16727;SDS011;8482;54.396;18.590;2023-04-16T18:39:16;4.20;;;2.63;;
16727;SDS011;8482;54.396;18.590;2023-04-16T18:41:42;4.45;;;2.50;;
16727;SDS011;8482;54.396;18.590;2023-04-16T18:44:11;4.20;;;2.03;;
16727;SDS011;8482;54.396;18.590;2023-04-16T18:46:39;3.75;;;2.50;;
16727;SDS011;8482;54.396;18.590;2023-04-16T18:49:05;4.00;;;2.63;;
16727;SDS011;8482;54.396;18.590;2023-04-16T18:51:31;4.03;;;2.50;;
16727;SDS011;8482;54.396;18.590;2023-04-16T18:53:57;4.38;;;2.80;;
16727;SDS011;8482;54.396;18.590;2023-04-16T18:56:23;4.85;;;2.55;;
16727;SDS011;8482;54.396;18.590;2023-04-16T18:58:49;4.10;;;2.45;;
16727;SDS011;8482;54.396;18.590;2023-04-16T19:01:15;4.40;;;2.67;;
16727;SDS011;8482;54.396;18.590;2023-04-16T19:03:41;4.13;;;2.50;;
16727;SDS011;8482;54.396;18.590;2023-04-16T19:06:07;4.05;;;2.40;;
16727;SDS011;8482;54.396;18.590;2023-04-16T19:08:33;4.82;;;2.67;;
16727;SDS011;8482;54.396;18.590;2023-04-16T19:10:59;3.22;;;2.08;;
16727;SDS011;8482;54.396;18.590;2023-04-16T19:13:25;4.60;;;2.17;;
16727;SDS011;8482;54.396;18.590;2023-04-16T19:15:55;4.70;;;2.38;;
16727;SDS011;8482;54.396;18.590;2023-04-16T19:18:23;3.53;;;1.95;;
16727;SDS011;8482;54.396;18.590;2023-04-16T19:20:50;3.05;;;1.70;;
16727;SDS011;8482;54.396;18.590;2023-04-16T19:23:15;3.40;;;1.90;;
16727;SDS011;8482;54.396;18.590;2023-04-16T19:25:42;3.03;;;1.95;;
16727;SDS011;8482;54.396;18.590;2023-04-16T19:28:08;3.70;;;2.10;;
16727;SDS011;8482;54.396;18.590;2023-04-16T19:30:34;3.55;;;2.30;;
16727;SDS011;8482;54.396;18.590;2023-04-16T19:33:00;3.58;;;2.10;;
16727;SDS011;8482;54.396;18.590;2023-04-16T19:35:26;2.65;;;2.00;;
16727;SDS011;8482;54.396;18.590;2023-04-16T19:37:52;2.10;;;1.58;;
16727;SDS011;8482;54.396;18.590;2023-04-16T19:40:20;3.20;;;1.90;;
16727;SDS011;8482;54.396;18.590;2023-04-16T19:42:46;2.53;;;1.55;;
16727;SDS011;8482;54.396;18.590;2023-04-16T19:45:11;2.53;;;1.67;;
16727;SDS011;8482;54.396;18.590;2023-04-16T19:47:37;2.10;;;1.30;;
16727;SDS011;8482;54.396;18.590;2023-04-16T19:50:03;3.47;;;2.05;;
16727;SDS011;8482;54.396;18.590;2023-04-16T19:52:30;2.15;;;1.48;;
16727;SDS011;8482;54.396;18.590;2023-04-16T19:55:02;2.65;;;1.50;;
16727;SDS011;8482;54.396;18.590;2023-04-16T19:57:30;1.83;;;1.48;;
16727;SDS011;8482;54.396;18.590;2023-04-16T19:59:56;2.38;;;1.67;;
16727;SDS011;8482;54.396;18.590;2023-04-16T20:02:22;3.85;;;1.80;;
16727;SDS011;8482;54.396;18.590;2023-04-16T20:04:47;1.98;;;1.30;;
16727;SDS011;8482;54.396;18.590;2023-04-16T20:07:13;2.90;;;1.55;;
16727;SDS011;8482;54.396;18.590;2023-04-16T20:09:39;2.75;;;1.80;;
16727;SDS011;8482;54.396;18.590;2023-04-16T20:12:11;2.97;;;1.77;;
16727;SDS011;8482;54.396;18.590;2023-04-16T20:14:37;3.80;;;1.95;;
16727;SDS011;8482;54.396;18.590;2023-04-16T20:17:03;2.35;;;1.60;;
16727;SDS011;8482;54.396;18.590;2023-04-16T20:19:33;4.68;;;2.55;;
16727;SDS011;8482;54.396;18.590;2023-04-16T20:22:01;4.40;;;2.17;;
16727;SDS011;8482;54.396;18.590;2023-04-16T20:24:29;3.38;;;2.00;;
16727;SDS011;8482;54.396;18.590;2023-04-16T20:26:55;2.00;;;1.67;;
16727;SDS011;8482;54.396;18.590;2023-04-16T20:29:21;3.25;;;1.80;;
16727;SDS011;8482;54.396;18.590;2023-04-16T20:31:47;3.00;;;2.38;;